Dades meteomassalio
Diari Summary for Diciembre 9, 2017 Units:  Metric    English   Both
« Previous Day
Next Day »
Diari Semanal Mensual Anual Personalitzat
  Maxima: Minima: Mijana:
Temperatura: -17.8 °C -14.7 °C -13.3 °C
Rosada: -17.8 °C -18.3 °C -16.5 °C
Humitat: Humidity % 51 % 67 %
Velocitat del vent: 0 km/h 0 km/h 30.7 km/h
Racha vent: 0 km/h - -
Vent:- - NW
Pressio: 0 hPa 34611.7 hPa -
Pluja: 0 mm    
Historical Graphs
 
 
Tabular Data for Diciembre 9, 2017
Time Temperature Dew Point Pressure Wind Wind Speed Wind Gust Humidity Rainfall Rate (Hourly) solar Conditions
-17.8 °C -17.8 °C 0 hPa Calm     Humidity % 0 mm SolarRadiationWatts/m^2 W/m2 Conditions
00:02 -13.4 °C -15.8 °C 34784.4 hPa NNW 29.8 km/h 29.8 km/h 75 % 0 mm 0.0 W/m2 CLR
00:07 -13.4 °C -15.8 °C 34784.4 hPa NW 29.8 km/h 29.8 km/h 75 % 0 mm 0.0 W/m2 CLR
00:17 -13.4 °C -15.8 °C 34774.2 hPa NW 32.8 km/h 32.8 km/h 75 % 0 mm 0.0 W/m2 CLR
00:22 -13.4 °C -15.8 °C 34774.2 hPa NW 33.6 km/h 33.6 km/h 75 % 0 mm 0.0 W/m2 CLR
00:27 -13.4 °C -15.8 °C 34774.2 hPa WNW 38.8 km/h 38.8 km/h 75 % 0 mm 0.0 W/m2 CLR
00:32 -13.4 °C -15.9 °C 34774.2 hPa NW 35.7 km/h 35.7 km/h 74 % 0 mm 0.0 W/m2 CLR
00:37 -13.4 °C -15.9 °C 34774.2 hPa NW 41.7 km/h 41.7 km/h 74 % 0 mm 0.0 W/m2 CLR
00:42 -13.4 °C -15.9 °C 34760.7 hPa NW 29.8 km/h 29.8 km/h 74 % 0 mm 0.0 W/m2 CLR
00:47 -13.4 °C -16 °C 34760.7 hPa NW 31.1 km/h 31.1 km/h 73 % 0 mm 0.0 W/m2 CLR
00:52 -13.4 °C -16 °C 34774.2 hPa NNW 17.9 km/h 17.9 km/h 73 % 0 mm 0.0 W/m2 CLR
00:57 -13.4 °C -16 °C 34774.2 hPa WNW 29.8 km/h 29.8 km/h 73 % 0 mm 0.0 W/m2 CLR
01:02 -13.4 °C -16 °C 34774.2 hPa NNW 47.6 km/h 47.6 km/h 73 % 0 mm 0.0 W/m2 CLR
01:07 -13.4 °C -16 °C 34774.2 hPa NW 31.1 km/h 31.1 km/h 73 % 0 mm 0.0 W/m2 CLR
01:12 -13.4 °C -16.1 °C 34760.7 hPa NNW 38.8 km/h 38.8 km/h 72 % 0 mm 0.0 W/m2 CLR
01:17 -13.4 °C -16 °C 34760.7 hPa NW 41.7 km/h 41.7 km/h 73 % 0 mm 0.0 W/m2 CLR
01:19 -13.4 °C -16 °C 34760.7 hPa NW 41.7 km/h 41.7 km/h 73 % 0 mm 0.0 W/m2 CLR
01:24 -13.8 °C -16.3 °C 34760.7 hPa WNW 41.7 km/h 41.7 km/h 73 % 0 mm 0.0 W/m2 CLR
01:29 -13.4 °C -16 °C 34760.7 hPa NW 38.8 km/h 38.8 km/h 73 % 0 mm 0.0 W/m2 CLR
01:39 -13.4 °C -15.9 °C 34760.7 hPa NNW 65.5 km/h 65.5 km/h 74 % 0 mm 0.0 W/m2 CLR
01:49 -13.4 °C -15.9 °C 34760.7 hPa NW 47.6 km/h 47.6 km/h 74 % 0 mm 0.0 W/m2 CLR
01:54 -13.4 °C -15.9 °C 34760.7 hPa NW 41.7 km/h 41.7 km/h 74 % 0 mm 0.0 W/m2 CLR
01:59 -13.4 °C -15.9 °C 34760.7 hPa NW 38.8 km/h 38.8 km/h 74 % 0 mm 0.0 W/m2 CLR
02:04 -13.4 °C -15.9 °C 34760.7 hPa NNW 35.7 km/h 35.7 km/h 74 % 0 mm 0.0 W/m2 CLR
02:09 -13.8 °C -16.2 °C 34774.2 hPa NW 38.8 km/h 38.8 km/h 74 % 0 mm 0.0 W/m2 CLR
02:14 -13.4 °C -15.8 °C 34760.7 hPa NW 31.1 km/h 31.1 km/h 75 % 0 mm 0.0 W/m2 CLR
02:29 -13.8 °C -16.2 °C 34760.7 hPa NNW 44.1 km/h 44.1 km/h 74 % 0 mm 0.0 W/m2 CLR
02:34 -13.8 °C -16.2 °C 34750.5 hPa NNW 38.8 km/h 38.8 km/h 74 % 0 mm 0.0 W/m2 CLR
02:39 -13.8 °C -16.2 °C 34750.5 hPa WNW 50.7 km/h 50.7 km/h 74 % 0 mm 0.0 W/m2 CLR
02:44 -13.8 °C -16.2 °C 34750.5 hPa NNW 38.8 km/h 38.8 km/h 74 % 0 mm 0.0 W/m2 CLR
02:49 -13.8 °C -16.2 °C 34750.5 hPa NW 50.7 km/h 50.7 km/h 74 % 0 mm 0.0 W/m2 CLR
02:54 -13.8 °C -16.1 °C 34750.5 hPa NW 62.6 km/h 62.6 km/h 75 % 0 mm 0.0 W/m2 CLR
03:09 -13.8 °C -15.9 °C 34750.5 hPa North 44.7 km/h 44.7 km/h 76 % 0 mm 0.0 W/m2 CLR
03:14 -13.8 °C -15.9 °C 34750.5 hPa NW 50.7 km/h 50.7 km/h 76 % 0 mm 0.0 W/m2 CLR
03:19 -13.8 °C -15.9 °C 34750.5 hPa NNW 50.7 km/h 50.7 km/h 76 % 0 mm 0.0 W/m2 CLR
03:24 -13.8 °C -15.9 °C 34750.5 hPa NW 56.6 km/h 56.6 km/h 76 % 0 mm 0.0 W/m2 CLR
03:29 -13.8 °C -15.9 °C 34750.5 hPa NW 47.6 km/h 47.6 km/h 76 % 0 mm 0.0 W/m2 CLR
03:34 -13.8 °C -16.1 °C 34750.5 hPa NW 50.7 km/h 50.7 km/h 75 % 0 mm 0.0 W/m2 CLR
03:39 -13.8 °C -15.9 °C 34750.5 hPa NW 28.5 km/h 28.5 km/h 76 % 0 mm 0.0 W/m2 CLR
03:44 -13.8 °C -15.9 °C 34750.5 hPa NW 44.1 km/h 44.1 km/h 76 % 0 mm 0.0 W/m2 CLR
03:54 -14.1 °C -16.2 °C 34750.5 hPa NW 44.7 km/h 44.7 km/h 77 % 0 mm 0.0 W/m2 CLR
04:04 -14.1 °C -16.2 °C 34740.4 hPa NNW 36.2 km/h 36.2 km/h 77 % 0 mm 0.0 W/m2 CLR
04:09 -14.1 °C -16.3 °C 34740.4 hPa NW 44.7 km/h 44.7 km/h 76 % 0 mm 0.0 W/m2 CLR
04:16 -13.8 °C -16.1 °C 34726.8 hPa NNW 50.7 km/h 50.7 km/h 75 % 0 mm 0.0 W/m2 CLR
04:18 -13.8 °C -16.1 °C 34740.4 hPa North 50.7 km/h 50.7 km/h 75 % 0 mm 0.0 W/m2 CLR
04:23 -13.8 °C -16.1 °C 34726.8 hPa NNW 75.2 km/h 75.2 km/h 75 % 0 mm 0.0 W/m2 CLR
04:24 -13.8 °C -16.2 °C 34740.4 hPa NNW 77.4 km/h 77.4 km/h 74 % 0 mm 0.0 W/m2 CLR
04:29 -13.8 °C -16.2 °C 34740.4 hPa North 53.6 km/h 53.6 km/h 74 % 0 mm 0.0 W/m2 CLR
04:30 -13.8 °C -16.2 °C 34740.4 hPa North 56.6 km/h 56.6 km/h 74 % 0 mm 0.0 W/m2 CLR
04:35 -13.8 °C -16.2 °C 34740.4 hPa NW 47.6 km/h 47.6 km/h 74 % 0 mm 0.0 W/m2 CLR
04:40 -13.8 °C -16.1 °C 34740.4 hPa NNW 50.7 km/h 50.7 km/h 75 % 0 mm 0.0 W/m2 CLR
04:45 -13.8 °C -16.1 °C 34740.4 hPa NNW 44.7 km/h 44.7 km/h 75 % 0 mm 0.0 W/m2 CLR
04:50 -14.1 °C -16.3 °C 34740.4 hPa NW 50.7 km/h 50.7 km/h 75 % 0 mm 0.0 W/m2 CLR
04:55 -14.1 °C -16.3 °C 34740.4 hPa North 47.6 km/h 47.6 km/h 75 % 0 mm 0.0 W/m2 CLR
05:00 -14.1 °C -16.3 °C 34740.4 hPa NNW 51.8 km/h 51.8 km/h 75 % 0 mm 0.0 W/m2 CLR
05:10 -14.1 °C -16.5 °C 34740.4 hPa NW 47.6 km/h 47.6 km/h 74 % 0 mm 0.0 W/m2 CLR
05:15 -14.1 °C -16.5 °C 34740.4 hPa NNW 53.6 km/h 53.6 km/h 74 % 0 mm 0.0 W/m2 CLR
05:20 -14.1 °C -16.5 °C 34740.4 hPa NNW 50.7 km/h 50.7 km/h 74 % 0 mm 0.0 W/m2 CLR
05:25 -14.1 °C -16.3 °C 34740.4 hPa NW 50.7 km/h 50.7 km/h 75 % 0 mm 0.0 W/m2 CLR
05:45 -14.1 °C -16.3 °C 34726.8 hPa WNW 47.6 km/h 47.6 km/h 76 % 0 mm 0.0 W/m2 CLR
05:55 -14.1 °C -16.2 °C 34740.4 hPa NW 50.7 km/h 50.7 km/h 77 % 0 mm 0.0 W/m2 CLR
06:00 -14.1 °C -16.2 °C 34740.4 hPa NNW 56.6 km/h 56.6 km/h 77 % 0 mm 0.0 W/m2 CLR
06:05 -14.1 °C -16.2 °C 34740.4 hPa NW 36.2 km/h 36.2 km/h 77 % 0 mm 0.0 W/m2 CLR
06:10 -14.4 °C -16.6 °C 34740.4 hPa NNW 25.9 km/h 25.9 km/h 76 % 0 mm 0.0 W/m2 CLR
06:15 -14.4 °C -16.6 °C 34740.4 hPa NNW 28.5 km/h 28.5 km/h 76 % 0 mm 0.0 W/m2 CLR
06:20 -14.4 °C -16.6 °C 34740.4 hPa NNE 26.9 km/h 26.9 km/h 76 % 0 mm 0.0 W/m2 CLR
06:25 -14.4 °C -16.6 °C 34740.4 hPa NW 44.1 km/h 44.1 km/h 76 % 0 mm 0.0 W/m2 CLR
06:30 -14.4 °C -16.6 °C 34740.4 hPa West 38.8 km/h 38.8 km/h 76 % 0 mm 0.0 W/m2 CLR
06:35 -14.4 °C -16.6 °C 34740.4 hPa WNW 41.7 km/h 41.7 km/h 76 % 0 mm 0.0 W/m2 CLR
06:40 -14.4 °C -16.4 °C 34740.4 hPa NW 26.9 km/h 26.9 km/h 77 % 0 mm 0.0 W/m2 CLR
06:45 -14.4 °C -16.4 °C 34740.4 hPa NW 41.4 km/h 41.4 km/h 77 % 0 mm 0.0 W/m2 CLR
06:50 -14.4 °C -16.4 °C 34740.4 hPa North 32.8 km/h 32.8 km/h 77 % 0 mm 0.0 W/m2 CLR
06:55 -14.4 °C -16.3 °C 34740.4 hPa NNW 47.6 km/h 47.6 km/h 78 % 0 mm 0.0 W/m2 CLR
07:05 -14.4 °C -16.3 °C 34740.4 hPa NW 41.7 km/h 41.7 km/h 78 % 0 mm 0.0 W/m2 CLR
07:10 -14.4 °C -16.3 °C 34740.4 hPa WNW 47.6 km/h 47.6 km/h 78 % 0 mm 0.0 W/m2 CLR
07:20 -14.4 °C -16.4 °C 34740.4 hPa NW 56.6 km/h 56.6 km/h 77 % 0 mm 0.0 W/m2 CLR
07:25 -14.4 °C -16.4 °C 34740.4 hPa NNW 56.6 km/h 56.6 km/h 77 % 0 mm 0.0 W/m2 CLR
07:31 -14.4 °C -16.4 °C 34726.8 hPa NW 38.8 km/h 38.8 km/h 77 % 0 mm 0.0 W/m2 CLR
07:36 -14.4 °C -16.4 °C 34740.4 hPa NW 38.8 km/h 38.8 km/h 77 % 0 mm 0.0 W/m2 CLR
07:46 -14.4 °C -16.6 °C 34740.4 hPa WNW 38.8 km/h 38.8 km/h 76 % 0 mm 0.0 W/m2 CLR
07:51 -14.4 °C -16.6 °C 34740.4 hPa West 26.9 km/h 26.9 km/h 76 % 0 mm 0.0 W/m2 CLR
07:56 -14.4 °C -16.6 °C 34740.4 hPa West 44.7 km/h 44.7 km/h 76 % 0 mm 0.0 W/m2 CLR
08:01 -14.7 °C -16.8 °C 34740.4 hPa West 44.1 km/h 44.1 km/h 76 % 0 mm 0.0 W/m2 CLR
08:06 -14.7 °C -16.8 °C 34750.5 hPa WNW 20.9 km/h 20.9 km/h 76 % 0 mm 0.0 W/m2 OVC
08:11 -14.7 °C -16.8 °C 34750.5 hPa NW 26.9 km/h 26.9 km/h 77 % 0 mm 0.0 W/m2 OVC
08:21 -14.7 °C -16.8 °C 34750.5 hPa NW 47.6 km/h 47.6 km/h 77 % 0 mm 7.0 W/m2 BKN
08:26 -14.4 °C -16.4 °C 34750.5 hPa NNW 38.8 km/h 38.8 km/h 77 % 0 mm 11.0 W/m2 BKN
08:36 -14.4 °C -16.6 °C 34750.5 hPa NW 36.2 km/h 36.2 km/h 76 % 0 mm 14.0 W/m2 BKN
08:41 -14.4 °C -16.7 °C 34750.5 hPa NW 31.1 km/h 31.1 km/h 75 % 0 mm 18.0 W/m2 BKN
08:46 -14.4 °C -16.7 °C 34760.7 hPa WNW 33.6 km/h 33.6 km/h 75 % 0 mm 25.0 W/m2 BKN
08:51 -14.4 °C -16.7 °C 34760.7 hPa WNW 38.8 km/h 38.8 km/h 75 % 0 mm 37.0 W/m2 BKN
08:56 -14.4 °C -16.7 °C 34760.7 hPa NNW 50.7 km/h 50.7 km/h 75 % 0 mm 44.0 W/m2 BKN
09:01 -14.4 °C -16.7 °C 34760.7 hPa NW 41.7 km/h 41.7 km/h 75 % 0 mm 49.0 W/m2 SCT
09:11 -14.1 °C -16.6 °C 34760.7 hPa NW 38.8 km/h 38.8 km/h 73 % 0 mm 79.0 W/m2 FEW
09:21 -14.1 °C -16.6 °C 34774.2 hPa NW 23.8 km/h 23.8 km/h 73 % 0 mm 98.0 W/m2 CLR
09:31 -14.1 °C -16.7 °C 34774.2 hPa NNW 41.7 km/h 41.7 km/h 72 % 0 mm 134.0 W/m2 CLR
09:46 -13.8 °C -16.6 °C 34784.4 hPa NW 50.7 km/h 50.7 km/h 70 % 0 mm 130.0 W/m2 CLR
09:51 -13.8 °C -16.6 °C 34784.4 hPa NW 41.7 km/h 41.7 km/h 70 % 0 mm 139.0 W/m2 CLR
09:56 -13.8 °C -16.6 °C 34784.4 hPa NW 59.5 km/h 59.5 km/h 70 % 0 mm 118.0 W/m2 CLR
10:09 -13.4 °C -16.2 °C 34784.4 hPa NW 41.7 km/h 41.7 km/h 71 % 0 mm 171.0 W/m2 CLR
10:14 -13.4 °C -16.2 °C 34784.4 hPa NW 50.7 km/h 50.7 km/h 71 % 0 mm 211.0 W/m2 CLR
10:19 -13.4 °C -16.2 °C 34784.4 hPa NW 35.7 km/h 35.7 km/h 71 % 0 mm 234.0 W/m2 CLR
10:24 -13.4 °C -16.2 °C 34784.4 hPa NNW 49.2 km/h 49.2 km/h 71 % 0 mm 258.0 W/m2 CLR
10:29 -13.4 °C -16.3 °C 34784.4 hPa NW 50.7 km/h 50.7 km/h 70 % 0 mm 237.0 W/m2 CLR
10:39 -13.2 °C -16 °C 34784.4 hPa NW 44.7 km/h 44.7 km/h 70 % 0 mm 234.0 W/m2 CLR
10:49 -13.2 °C -16.1 °C 34784.4 hPa NW 51.8 km/h 51.8 km/h 69 % 0 mm 297.0 W/m2 CLR
10:59 -13.2 °C -16.6 °C 34797.9 hPa NNW 62.6 km/h 62.6 km/h 65 % 0 mm 334.0 W/m2 CLR
11:14 -12.6 °C -16.2 °C 34797.9 hPa NNW 56.6 km/h 56.6 km/h 64 % 0 mm 353.0 W/m2 CLR
11:19 -12.6 °C -16.3 °C 34797.9 hPa NW 53.6 km/h 53.6 km/h 63 % 0 mm 366.0 W/m2 CLR
11:24 -12.6 °C -16.4 °C 34797.9 hPa NNW 68.6 km/h 68.6 km/h 62 % 0 mm 373.0 W/m2 CLR
11:29 -12.6 °C -16.4 °C 34797.9 hPa NW 49.2 km/h 49.2 km/h 62 % 0 mm 381.0 W/m2 CLR
11:34 -12.6 °C -16.4 °C 34797.9 hPa NNW 62.6 km/h 62.6 km/h 62 % 0 mm 390.0 W/m2 CLR
11:39 -12.2 °C -16.1 °C 34797.9 hPa NNW 47.6 km/h 47.6 km/h 62 % 0 mm 385.0 W/m2 CLR
11:44 -12.2 °C -16.3 °C 34784.4 hPa NNW 56.6 km/h 56.6 km/h 60 % 0 mm 397.0 W/m2 CLR
11:49 -12.2 °C -16.3 °C 34784.4 hPa NW 53.6 km/h 53.6 km/h 60 % 0 mm 401.0 W/m2 CLR
12:09 -11.9 °C -16.4 °C 34797.9 hPa NNW 62.6 km/h 62.6 km/h 57 % 0 mm 431.0 W/m2 CLR
12:14 -11.9 °C -16.4 °C 34797.9 hPa NNW 67.3 km/h 67.3 km/h 57 % 0 mm 427.0 W/m2 CLR
12:19 -11.9 °C -16.4 °C 34797.9 hPa NNW 56.6 km/h 56.6 km/h 57 % 0 mm 431.0 W/m2 CLR
12:24 -11.9 °C -16.4 °C 34797.9 hPa North 53.6 km/h 53.6 km/h 57 % 0 mm 434.0 W/m2 CLR
12:29 -11.9 °C -16.4 °C 34784.4 hPa NNW 44.1 km/h 44.1 km/h 57 % 0 mm 431.0 W/m2 CLR
12:34 -11.9 °C -16.4 °C 34797.9 hPa NNW 68.6 km/h 68.6 km/h 57 % 0 mm 436.0 W/m2 CLR
12:39 -11.9 °C -16.4 °C 34784.4 hPa NNW 56.6 km/h 56.6 km/h 57 % 0 mm 450.0 W/m2 CLR
12:49 -11.9 °C -16.3 °C 34784.4 hPa NNW 47.6 km/h 47.6 km/h 58 % 0 mm 403.0 W/m2 CLR
12:54 -11.9 °C -16.4 °C 34784.4 hPa NNW 44.7 km/h 44.7 km/h 57 % 0 mm 352.0 W/m2 CLR
12:59 -11.9 °C -16.6 °C 34784.4 hPa NNW 38.8 km/h 38.8 km/h 56 % 0 mm 439.0 W/m2 CLR
13:04 -11.9 °C -16.6 °C 34774.2 hPa NNW 44.7 km/h 44.7 km/h 56 % 0 mm 438.0 W/m2 CLR
13:09 -11.6 °C -16.4 °C 34774.2 hPa NW 59.5 km/h 59.5 km/h 55 % 0 mm 446.0 W/m2 CLR
13:19 -11.6 °C -16.6 °C 34774.2 hPa North 50.7 km/h 50.7 km/h 54 % 0 mm 434.0 W/m2 CLR
13:24 -11.6 °C -16.4 °C 34760.7 hPa WNW 47.6 km/h 47.6 km/h 55 % 0 mm 432.0 W/m2 CLR
13:29 -11.3 °C -16.3 °C 34760.7 hPa North 62.1 km/h 62.1 km/h 54 % 0 mm 432.0 W/m2 CLR
13:34 -11.3 °C -16.2 °C 34760.7 hPa NNW 53.6 km/h 53.6 km/h 55 % 0 mm 434.0 W/m2 CLR
13:39 -11.3 °C -16.3 °C 34760.7 hPa NNW 46.7 km/h 46.7 km/h 54 % 0 mm 436.0 W/m2 CLR
13:44 -11.3 °C -16.3 °C 34760.7 hPa North 47.6 km/h 47.6 km/h 54 % 0 mm 443.0 W/m2 CLR
13:54 -11.3 °C -16.4 °C 34750.5 hPa NNW 50.7 km/h 50.7 km/h 53 % 0 mm 418.0 W/m2 CLR
13:59 -11 °C -16.2 °C 34750.5 hPa NW 59.5 km/h 59.5 km/h 53 % 0 mm 427.0 W/m2 CLR
14:04 -11 °C -16.3 °C 34750.5 hPa North 56.6 km/h 56.6 km/h 52 % 0 mm 418.0 W/m2 CLR
14:09 -11 °C -16.3 °C 34750.5 hPa NNW 53.6 km/h 53.6 km/h 52 % 0 mm 406.0 W/m2 CLR
14:14 -11 °C -16.2 °C 34740.4 hPa NW 50.7 km/h 50.7 km/h 53 % 0 mm 390.0 W/m2 CLR
14:19 -11.3 °C -16.6 °C 34740.4 hPa North 51.8 km/h 51.8 km/h 52 % 0 mm 387.0 W/m2 CLR
14:34 -11 °C -16.3 °C 34740.4 hPa NNW 47.6 km/h 47.6 km/h 52 % 0 mm 367.0 W/m2 CLR
14:39 -11 °C -16.3 °C 34726.8 hPa NNW 32.8 km/h 33.2 km/h 52 % 0 mm 359.0 W/m2 CLR
14:41 -11 °C -16.4 °C 34726.8 hPa NNW 44.7 km/h 44.7 km/h 51 % 0 mm 359.0 W/m2 CLR
14:46 -10.7 °C -16.2 °C 34726.8 hPa NW 50.7 km/h 50.7 km/h 51 % 0 mm 359.0 W/m2 CLR
14:51 -10.7 °C -16 °C 34726.8 hPa NNW 36.2 km/h 36.2 km/h 52 % 0 mm 348.0 W/m2 CLR
15:01 -10.7 °C -16.2 °C 34716.7 hPa NNW 23.8 km/h 23.8 km/h 51 % 0 mm 255.0 W/m2 CLR
15:06 -11 °C -16.4 °C 34716.7 hPa NNW 44.7 km/h 44.7 km/h 51 % 0 mm 283.0 W/m2 CLR
15:11 -11 °C -16.3 °C 34716.7 hPa NNW 32.8 km/h 32.8 km/h 52 % 0 mm 297.0 W/m2 CLR
15:16 -11 °C -16.3 °C 34716.7 hPa NNW 32.8 km/h 32.8 km/h 52 % 0 mm 343.0 W/m2 CLR
15:21 -11 °C -16.3 °C 34703.1 hPa NNW 47.6 km/h 47.6 km/h 52 % 0 mm 345.0 W/m2 CLR
15:26 -10.7 °C -16 °C 34716.7 hPa NNW 38.8 km/h 38.8 km/h 52 % 0 mm 313.0 W/m2 CLR
15:31 -10.7 °C -16 °C 34716.7 hPa NNW 44.7 km/h 44.7 km/h 52 % 0 mm 262.0 W/m2 CLR
15:42 -11 °C -16.3 °C 34703.1 hPa WNW 26.9 km/h 26.9 km/h 52 % 0 mm 227.0 W/m2 CLR
15:57 -11.3 °C -16.6 °C 34703.1 hPa North 31.1 km/h 31.1 km/h 52 % 0 mm 70.0 W/m2 CLR
16:02 -11.3 °C -16.4 °C 34703.1 hPa NW 20.9 km/h 20.9 km/h 53 % 0 mm 65.0 W/m2 FEW
16:12 -11.6 °C -16.6 °C 34703.1 hPa North 26.9 km/h 26.9 km/h 54 % 0 mm 67.0 W/m2 SCT
16:32 -11.6 °C -16.4 °C 34703.1 hPa North 26.9 km/h 26.9 km/h 55 % 0 mm 49.0 W/m2 SCT
16:42 -11.6 °C -16.4 °C 34703.1 hPa NNE 20.9 km/h 20.9 km/h 55 % 0 mm 30.0 W/m2 BKN
16:52 -11.9 °C -16.6 °C 34703.1 hPa NNE 15 km/h 15 km/h 56 % 0 mm 12.0 W/m2 BKN
17:07 -11.9 °C -16.4 °C 34693 hPa NNW 23.8 km/h 23.8 km/h 57 % 0 mm 9.0 W/m2 BKN
17:12 -12.2 °C -16.7 °C 34693 hPa North 20.9 km/h 20.9 km/h 57 % 0 mm 9.0 W/m2 BKN
17:22 -12.2 °C -16.6 °C 34693 hPa North 9 km/h 9.3 km/h 58 % 0 mm 5.0 W/m2 OVC
17:27 -12.2 °C -16.6 °C 34693 hPa Calm     58 % 0 mm 0.0 W/m2 OVC
17:32 -12.2 °C -16.6 °C 34693 hPa Calm     58 % 0 mm 0.0 W/m2 OVC
17:37 -12.2 °C -16.6 °C 34693 hPa Calm     58 % 0 mm 0.0 W/m2 OVC
17:42 -12.6 °C -16.9 °C 34693 hPa Calm     58 % 0 mm 0.0 W/m2 CLR
17:47 -12.6 °C -16.9 °C 34693 hPa Calm     58 % 0 mm 0.0 W/m2 CLR
17:52 -12.6 °C -16.8 °C 34693 hPa Calm     59 % 0 mm 0.0 W/m2 CLR
17:57 -12.6 °C -16.8 °C 34693 hPa Calm     59 % 0 mm 0.0 W/m2 CLR
18:02 -12.6 °C -16.8 °C 34693 hPa Calm     59 % 0 mm 0.0 W/m2 CLR
18:07 -12.6 °C -16.8 °C 34693 hPa Calm     59 % 0 mm 0.0 W/m2 CLR
18:12 -12.6 °C -16.6 °C 34693 hPa Calm     60 % 0 mm 0.0 W/m2 CLR
18:17 -12.6 °C -16.8 °C 34693 hPa Calm     59 % 0 mm 0.0 W/m2 CLR
18:22 -12.6 °C -16.8 °C 34693 hPa Calm     59 % 0 mm 0.0 W/m2 CLR
18:23 -12.6 °C -16.8 °C 34693 hPa Calm     59 % 0 mm 0.0 W/m2 CLR
18:28 -12.6 °C -16.6 °C 34693 hPa Calm     60 % 0 mm 0.0 W/m2 CLR
18:33 -12.8 °C -16.9 °C 34693 hPa Calm     60 % 0 mm 0.0 W/m2 CLR
18:38 -12.8 °C -16.9 °C 34693 hPa Calm     60 % 0 mm 0.0 W/m2 CLR
18:43 -12.8 °C -16.9 °C 34693 hPa Calm     60 % 0 mm 0.0 W/m2 CLR
18:48 -12.8 °C -16.9 °C 34693 hPa Calm     60 % 0 mm 0.0 W/m2 CLR
18:53 -13.2 °C -17.2 °C 34682.8 hPa Calm     60 % 0 mm 0.0 W/m2 CLR
18:58 -13.2 °C -17.2 °C 34682.8 hPa Calm     60 % 0 mm 0.0 W/m2 CLR
19:03 -13.2 °C -17.2 °C 34682.8 hPa Calm     60 % 0 mm 0.0 W/m2 CLR
19:08 -13.2 °C -17.2 °C 34682.8 hPa Calm     60 % 0 mm 0.0 W/m2 CLR
19:13 -13.4 °C -17.4 °C 34682.8 hPa Calm     61 % 0 mm 0.0 W/m2 CLR
19:23 -13.8 °C -17.6 °C 34682.8 hPa Calm     62 % 0 mm 0.0 W/m2 CLR
19:28 -13.8 °C -17.6 °C 34669.3 hPa Calm     62 % 0 mm 0.0 W/m2 CLR
19:33 -14.1 °C -17.8 °C 34669.3 hPa Calm     62 % 0 mm 0.0 W/m2 CLR
19:38 -14.4 °C -18.1 °C 34669.3 hPa Calm     62 % 0 mm 0.0 W/m2 CLR
19:48 -14.7 °C -18.3 °C 34669.3 hPa Calm     63 % 0 mm 0.0 W/m2 CLR
19:53 -14.7 °C -18.1 °C 34669.3 hPa Calm     65 % 0 mm 0.0 W/m2 CLR
19:58 -14.4 °C -17.8 °C 34669.3 hPa Calm     65 % 0 mm 0.0 W/m2 CLR
20:03 -14.4 °C -17.7 °C 34669.3 hPa Calm     66 % 0 mm 0.0 W/m2 CLR
20:08 -14.4 °C -17.7 °C 34669.3 hPa Calm     66 % 0 mm 0.0 W/m2 CLR
20:18 -14.1 °C -17.3 °C 34669.3 hPa Calm     66 % 0 mm 0.0 W/m2 CLR
20:28 -14.1 °C -17.3 °C 34669.3 hPa Calm     66 % 0 mm 0.0 W/m2 CLR
20:38 -14.1 °C -17.3 °C 34669.3 hPa Calm     67 % 0 mm 0.0 W/m2 CLR
20:43 -14.1 °C -17.3 °C 34669.3 hPa Calm     67 % 0 mm 0.0 W/m2 CLR
20:48 -14.1 °C -17.1 °C 34669.3 hPa Calm     68 % 0 mm 0.0 W/m2 CLR
20:58 -14.4 °C -17.3 °C 34659.1 hPa Calm     69 % 0 mm 0.0 W/m2 CLR
21:03 -14.4 °C -17.2 °C 34659.1 hPa Calm     70 % 0 mm 0.0 W/m2 CLR
21:08 -14.4 °C -17.1 °C 34669.3 hPa Calm     71 % 0 mm 0.0 W/m2 CLR
21:18 -14.4 °C -17.1 °C 34659.1 hPa Calm     71 % 0 mm 0.0 W/m2 CLR
21:23 -14.4 °C -17.1 °C 34659.1 hPa Calm     71 % 0 mm 0.0 W/m2 CLR
21:28 -14.7 °C -17.3 °C 34659.1 hPa Calm     72 % 0 mm 0.0 W/m2 CLR
21:33 -14.7 °C -17.3 °C 34659.1 hPa Calm     72 % 0 mm 0.0 W/m2 CLR
21:38 -14.7 °C -17.3 °C 34659.1 hPa Calm     72 % 0 mm 0.0 W/m2 CLR
21:43 -14.7 °C -17.3 °C 34659.1 hPa Calm     72 % 0 mm 0.0 W/m2 CLR
21:48 -14.7 °C -17.3 °C 34659.1 hPa Calm     72 % 0 mm 0.0 W/m2 CLR
21:53 -14.4 °C -16.9 °C 34659.1 hPa Calm     73 % 0 mm 0.0 W/m2 CLR
22:03 -14.4 °C -16.8 °C 34645.6 hPa Calm     74 % 0 mm 0.0 W/m2 CLR
22:08 -14.4 °C -16.8 °C 34645.6 hPa Calm     74 % 0 mm 0.0 W/m2 CLR
22:13 -14.4 °C -16.8 °C 34645.6 hPa Calm     74 % 0 mm 0.0 W/m2 CLR
22:18 -14.4 °C -16.7 °C 34635.4 hPa Calm     75 % 0 mm 0.0 W/m2 CLR
22:33 -14.4 °C -16.7 °C 34635.4 hPa Calm     75 % 0 mm 0.0 W/m2 CLR
22:38 -14.4 °C -16.7 °C 34645.6 hPa Calm     75 % 0 mm 0.0 W/m2 CLR
22:40 -14.4 °C -16.7 °C 34635.4 hPa Calm     75 % 0 mm 0.0 W/m2 CLR
22:45 -14.4 °C -16.7 °C 34635.4 hPa Calm     75 % 0 mm 0.0 W/m2 CLR
22:55 -14.4 °C -16.6 °C 34625.2 hPa Calm     76 % 0 mm 0.0 W/m2 CLR
23:00 -14.4 °C -16.6 °C 34635.4 hPa Calm     76 % 0 mm 0.0 W/m2 CLR
23:10 -14.4 °C -16.4 °C 34635.4 hPa Calm     77 % 0 mm 0.0 W/m2 CLR
23:20 -14.4 °C -16.4 °C 34635.4 hPa Calm     77 % 0 mm 0.0 W/m2 CLR
23:25 -14.1 °C -16.2 °C 34635.4 hPa Calm     77 % 0 mm 0.0 W/m2 CLR
23:30 -14.1 °C -16.2 °C 34635.4 hPa Calm     77 % 0 mm 0.0 W/m2 CLR
23:35 -14.1 °C -16.2 °C 34625.2 hPa Calm     77 % 0 mm 0.0 W/m2 CLR
23:41 -14.1 °C -16.2 °C 34625.2 hPa Calm     77 % 0 mm 0.0 W/m2 CLR
23:46 -14.1 °C -16.2 °C 34611.7 hPa Calm     77 % 0 mm 0.0 W/m2 CLR
23:56 -14.1 °C -16.3 °C 34611.7 hPa Calm     76 % 0 mm 0.0 W/m2 CLR
Lo Temps de Massalio
Compliments of Weather Underground - 1 mb